createdAt,value
2023-01-07T00:00:52.059Z,96381.31
2023-01-07T00:03:38.611Z,96380.50
2023-01-07T00:06:26.765Z,96390.38
2023-01-07T00:09:16.487Z,96394.88
2023-01-07T00:12:02.775Z,96386.88
2023-01-07T00:14:48.536Z,96389.53
2023-01-07T00:17:34.465Z,96394.06
2023-01-07T00:20:20.155Z,96387.09
2023-01-07T00:23:05.866Z,96389.78
2023-01-07T00:25:52.777Z,96388.16
2023-01-07T00:28:40.821Z,96383.03
2023-01-07T00:31:32.282Z,96378.97
2023-01-07T00:34:23.557Z,96370.44
2023-01-07T00:37:29.340Z,96381.09
2023-01-07T00:40:15.198Z,96381.56
2023-01-07T00:43:02.326Z,96383.63
2023-01-07T00:45:48.292Z,96388.97
2023-01-07T00:48:34.021Z,96385.72
2023-01-07T00:51:20.108Z,96389.66
2023-01-07T00:54:06.462Z,96388.28
2023-01-07T00:56:52.574Z,96386.66
2023-01-07T00:59:38.905Z,96385.38
2023-01-07T01:02:24.534Z,96385.38
2023-01-07T01:05:12.203Z,96396.63
2023-01-07T01:07:58.177Z,96388.84
2023-01-07T01:10:45.093Z,96385.03
2023-01-07T01:13:30.950Z,96384.22
2023-01-07T01:16:18.107Z,96389.78
2023-01-07T01:19:03.973Z,96384.31
2023-01-07T01:21:49.604Z,96395.00
2023-01-07T01:24:35.148Z,96399.50
2023-01-07T01:27:20.845Z,96385.84
2023-01-07T01:30:07.748Z,96393.03
2023-01-07T01:32:57.071Z,96379.69
2023-01-07T01:35:43.918Z,96387.34
2023-01-07T01:38:30.277Z,96389.09
2023-01-07T01:41:19.060Z,96396.06
2023-01-07T01:44:40.024Z,96391.97
2023-01-07T01:47:47.638Z,96390.81
2023-01-07T01:50:39.874Z,96385.94
2023-01-07T01:53:29.487Z,96373.53
2023-01-07T01:56:19.236Z,96372.50
2023-01-07T01:59:08.237Z,96371.69
2023-01-07T02:01:57.199Z,96355.84
2023-01-07T02:04:43.294Z,96360.22
2023-01-07T02:07:30.642Z,96353.72
2023-01-07T02:10:22.508Z,96360.69
2023-01-07T02:13:25.735Z,96360.34
2023-01-07T02:16:22.705Z,96358.94
2023-01-07T02:20:00.232Z,96364.72
2023-01-07T02:22:47.125Z,96361.84
2023-01-07T02:25:49.001Z,96365.75
2023-01-07T02:29:11.391Z,96355.91
2023-01-07T02:32:16.632Z,96358.00
2023-01-07T02:35:19.777Z,96359.28
2023-01-07T02:38:09.514Z,96359.28
2023-01-07T02:41:38.388Z,96356.03
2023-01-07T02:45:01.212Z,96353.81
2023-01-07T02:47:54.260Z,96349.53
2023-01-07T02:50:40.445Z,96342.00
2023-01-07T02:53:26.207Z,96357.75
2023-01-07T02:56:29.042Z,96352.66
2023-01-07T02:59:27.845Z,96355.31
2023-01-07T03:02:27.786Z,96341.66
2023-01-07T03:06:01.479Z,96350.00
2023-01-07T03:09:09.041Z,96357.41
2023-01-07T03:12:22.022Z,96357.88
2023-01-07T03:15:15.297Z,96363.19
2023-01-07T03:18:20.650Z,96359.94
2023-01-07T03:21:10.381Z,96356.25
2023-01-07T03:23:57.424Z,96349.28
2023-01-07T03:26:48.817Z,96356.69
2023-01-07T03:29:38.469Z,96348.13
2023-01-07T03:32:55.003Z,96351.25
2023-01-07T03:35:43.393Z,96346.53
2023-01-07T03:38:29.797Z,96338.75
2023-01-07T03:41:37.291Z,96343.59
2023-01-07T03:44:23.207Z,96341.19
2023-01-07T03:47:10.106Z,96345.44
2023-01-07T03:49:56.028Z,96343.84
2023-01-07T03:52:42.457Z,96337.94
2023-01-07T03:55:28.333Z,96337.56
2023-01-07T03:58:15.593Z,96340.47
2023-01-07T04:01:01.404Z,96336.66
2023-01-07T04:03:47.631Z,96337.69
2023-01-07T04:06:33.858Z,96337.69
2023-01-07T04:09:21.587Z,96342.22
2023-01-07T04:12:07.696Z,96344.66
2023-01-07T04:14:53.973Z,96347.31
2023-01-07T04:17:40.113Z,96345.69
2023-01-07T04:20:28.044Z,96347.16
2023-01-07T04:23:15.060Z,96341.84
2023-01-07T04:26:03.806Z,96337.44
2023-01-07T04:28:49.664Z,96345.97
2023-01-07T04:31:36.023Z,96345.44
2023-01-07T04:34:21.823Z,96348.09
2023-01-07T04:37:07.614Z,96344.34
2023-01-07T04:39:53.871Z,96350.75
2023-01-07T04:42:39.808Z,96353.41
2023-01-07T04:45:27.515Z,96351.41
2023-01-07T04:48:13.945Z,96358.00
2023-01-07T04:51:00.149Z,96356.38
2023-01-07T04:53:47.239Z,96357.19
2023-01-07T04:56:33.387Z,96359.63
2023-01-07T04:59:20.112Z,96362.88
2023-01-07T05:02:06.891Z,96367.38
2023-01-07T05:04:52.888Z,96360.22
2023-01-07T05:07:40.343Z,96363.91
2023-01-07T05:10:27.817Z,96371.31
2023-01-07T05:13:18.993Z,96376.03
2023-01-07T05:16:07.910Z,96372.22
2023-01-07T05:18:54.004Z,96368.97
2023-01-07T05:21:39.668Z,96370.81
2023-01-07T05:24:26.438Z,96374.50
2023-01-07T05:27:12.221Z,96373.13
2023-01-07T05:29:59.708Z,96375.19
2023-01-07T05:32:45.408Z,96377.50
2023-01-07T05:35:34.328Z,96386.28
2023-01-07T05:38:20.832Z,96382.00
2023-01-07T05:41:08.509Z,96384.06
2023-01-07T05:43:55.317Z,96380.81
2023-01-07T05:46:40.997Z,96389.41
2023-01-07T05:49:26.720Z,96388.22
2023-01-07T05:52:12.262Z,96377.06
2023-01-07T05:54:58.062Z,96389.94
2023-01-07T05:57:43.758Z,96390.75
2023-01-07T06:00:29.563Z,96383.81
2023-01-07T06:03:15.324Z,96386.56
2023-01-07T06:06:07.176Z,96386.31
2023-01-07T06:08:53.320Z,96388.41
2023-01-07T06:11:38.964Z,96386.19
2023-01-07T06:14:24.595Z,96391.72
2023-01-07T06:17:10.320Z,96385.00
2023-01-07T06:19:56.005Z,96388.69
2023-01-07T06:22:44.601Z,96395.03
2023-01-07T06:25:30.458Z,96397.69
2023-01-07T06:28:16.257Z,96397.56
2023-01-07T06:31:01.916Z,96406.16
2023-01-07T06:33:47.776Z,96405.94
2023-01-07T06:36:33.508Z,96410.44
2023-01-07T06:39:19.283Z,96392.25
2023-01-07T06:42:05.381Z,96393.72
2023-01-07T06:44:51.227Z,96402.06
2023-01-07T06:47:37.243Z,96401.69
2023-01-07T06:50:23.356Z,96403.09
2023-01-07T06:53:08.848Z,96396.81
2023-01-07T06:55:54.754Z,96397.88
2023-01-07T06:58:40.635Z,96411.16
2023-01-07T07:01:26.501Z,96405.03
2023-01-07T07:04:12.496Z,96417.31
2023-01-07T07:06:58.463Z,96401.78
2023-01-07T07:09:44.418Z,96402.00
2023-01-07T07:12:30.405Z,96411.53
2023-01-07T07:15:21.404Z,96416.03
2023-01-07T07:18:07.529Z,96411.91
2023-01-07T07:21:11.135Z,96410.88
2023-01-07T07:23:56.776Z,96409.38
2023-01-07T07:26:42.476Z,96404.06
2023-01-07T07:29:28.099Z,96413.38
2023-01-07T07:32:20.693Z,96405.97
2023-01-07T07:35:07.296Z,96410.41
2023-01-07T07:37:55.457Z,96408.34
2023-01-07T07:40:41.324Z,96396.06
2023-01-07T07:43:36.386Z,96397.22
2023-01-07T07:46:22.227Z,96391.03
2023-01-07T07:49:07.817Z,96398.69
2023-01-07T07:51:53.659Z,96395.59
2023-01-07T07:54:39.407Z,96392.22
2023-01-07T07:57:25.158Z,96394.22
2023-01-07T08:00:11.674Z,96389.06
2023-01-07T08:03:00.239Z,96380.03
2023-01-07T08:05:46.194Z,96391.38
2023-01-07T08:08:32.281Z,96389.66
2023-01-07T08:11:18.232Z,96381.44
2023-01-07T08:14:04.060Z,96375.00
2023-01-07T08:16:49.771Z,96377.78
2023-01-07T08:19:35.650Z,96377.56
2023-01-07T08:22:21.570Z,96383.56
2023-01-07T08:25:07.904Z,96367.81
2023-01-07T08:27:55.948Z,96381.06
2023-01-07T08:30:42.881Z,96371.81
2023-01-07T08:33:29.216Z,96377.00
2023-01-07T08:36:22.727Z,96371.81
2023-01-07T08:39:09.251Z,96380.50
2023-01-07T08:41:55.151Z,96377.84
2023-01-07T08:44:41.545Z,96372.06
2023-01-07T08:47:28.075Z,96372.75
2023-01-07T08:50:14.053Z,96375.06
2023-01-07T08:53:00.047Z,96366.03
2023-01-07T08:55:46.401Z,96371.56
2023-01-07T08:58:32.156Z,96359.41
2023-01-07T09:01:18.008Z,96361.94
2023-01-07T09:04:04.083Z,96365.56
2023-01-07T09:06:49.786Z,96365.88
2023-01-07T09:09:36.709Z,96361.25
2023-01-07T09:12:22.419Z,96362.28
2023-01-07T09:15:09.202Z,96352.97
2023-01-07T09:17:55.221Z,96349.16
2023-01-07T09:20:41.378Z,96340.25
2023-01-07T09:23:27.025Z,96351.72
2023-01-07T09:26:12.671Z,96337.97
2023-01-07T09:28:58.422Z,96341.84
2023-01-07T09:31:44.031Z,96328.38
2023-01-07T09:34:29.816Z,96331.69
2023-01-07T09:37:15.779Z,96325.94
2023-01-07T09:40:01.993Z,96313.66
2023-01-07T09:42:58.070Z,96313.09
2023-01-07T09:45:50.313Z,96311.09
2023-01-07T09:48:40.864Z,96300.47
2023-01-07T09:51:31.115Z,96304.91
2023-01-07T09:54:28.476Z,96300.69
2023-01-07T09:57:17.020Z,96303.50
2023-01-07T10:00:03.810Z,96299.84
2023-01-07T10:03:11.322Z,96295.91
2023-01-07T10:06:41.935Z,96284.50
2023-01-07T10:09:47.295Z,96278.13
2023-01-07T10:12:49.065Z,96273.34
2023-01-07T10:15:40.334Z,96265.38
2023-01-07T10:18:26.172Z,96262.41
2023-01-07T10:21:16.905Z,96250.81
2023-01-07T10:24:05.325Z,96255.63
2023-01-07T10:26:54.635Z,96248.59
2023-01-07T10:29:45.191Z,96248.53
2023-01-07T10:32:33.467Z,96238.50
2023-01-07T10:35:21.446Z,96242.75
2023-01-07T10:38:12.075Z,96238.06
2023-01-07T10:41:02.039Z,96220.22
2023-01-07T10:44:04.622Z,96226.56
2023-01-07T10:47:21.641Z,96214.75
2023-01-07T10:50:39.292Z,96215.34
2023-01-07T10:53:58.007Z,96215.63
2023-01-07T10:56:48.229Z,96210.00
2023-01-07T10:59:34.512Z,96199.50
2023-01-07T11:02:28.001Z,96191.47
2023-01-07T11:05:14.960Z,96182.34
2023-01-07T11:08:01.846Z,96178.88
2023-01-07T11:10:52.233Z,96187.25
2023-01-07T11:13:39.454Z,96179.00
2023-01-07T11:16:29.373Z,96177.22
2023-01-07T11:19:16.705Z,96179.75
2023-01-07T11:22:02.522Z,96169.38
2023-01-07T11:24:48.226Z,96164.91
2023-01-07T11:27:34.520Z,96161.50
2023-01-07T11:30:25.602Z,96159.13
2023-01-07T11:34:01.978Z,96155.13
2023-01-07T11:36:42.465Z,96144.09
2023-01-07T11:39:30.874Z,96136.91
2023-01-07T11:42:39.734Z,96128.91
2023-01-07T11:46:19.907Z,96134.50
2023-01-07T11:49:03.426Z,96124.03
2023-01-07T11:51:55.131Z,96117.97
2023-01-07T11:54:40.845Z,96106.47
2023-01-07T11:57:27.291Z,96107.84
2023-01-07T12:00:17.506Z,96103.16
2023-01-07T12:03:10.964Z,96100.06
2023-01-07T12:05:57.463Z,96094.78
2023-01-07T12:09:03.129Z,96095.00
2023-01-07T12:11:50.172Z,96091.41
2023-01-07T12:14:38.702Z,96087.94
2023-01-07T12:17:28.398Z,96076.63
2023-01-07T12:20:35.800Z,96083.25
2023-01-07T12:23:53.538Z,96075.78
2023-01-07T12:27:03.808Z,96068.75
2023-01-07T12:30:15.136Z,96058.28
2023-01-07T12:33:29.555Z,96065.50
2023-01-07T12:36:16.323Z,96058.09
2023-01-07T12:39:05.422Z,96053.28
2023-01-07T12:41:59.474Z,96052.94
2023-01-07T12:44:50.044Z,96045.41
2023-01-07T12:47:48.563Z,96045.38
2023-01-07T12:50:55.294Z,96041.22
2023-01-07T12:53:53.586Z,96038.50
2023-01-07T12:56:53.487Z,96032.81
2023-01-07T13:00:01.569Z,96035.72
2023-01-07T13:03:00.119Z,96041.41
2023-01-07T13:05:57.157Z,96036.16
2023-01-07T13:08:47.631Z,96023.06
2023-01-07T13:12:41.449Z,96028.84
2023-01-07T13:15:28.240Z,96020.28
2023-01-07T13:18:16.813Z,96026.59
2023-01-07T13:21:11.499Z,96007.88
2023-01-07T13:24:09.614Z,96017.31
2023-01-07T13:27:05.324Z,96014.09
2023-01-07T13:30:20.664Z,96008.88
2023-01-07T13:33:48.475Z,96013.00
2023-01-07T13:36:42.416Z,96013.63
2023-01-07T13:39:34.631Z,96010.50
2023-01-07T13:42:37.419Z,96012.91
2023-01-07T13:45:25.056Z,96011.59
2023-01-07T13:48:23.056Z,96013.38
2023-01-07T13:51:10.314Z,96001.09
2023-01-07T13:53:56.122Z,96015.88
2023-01-07T13:56:42.507Z,96010.94
2023-01-07T13:59:30.034Z,96008.50
2023-01-07T14:02:19.620Z,96015.09
2023-01-07T14:05:05.488Z,96012.00
2023-01-07T14:07:53.312Z,96008.84
2023-01-07T14:10:39.311Z,96002.28
2023-01-07T14:13:36.187Z,96009.56
2023-01-07T14:16:28.684Z,96009.69
2023-01-07T14:19:32.046Z,96007.63
2023-01-07T14:22:52.257Z,96011.72
2023-01-07T14:26:03.753Z,96008.38
2023-01-07T14:29:23.926Z,95997.28
2023-01-07T14:32:14.170Z,96004.06
2023-01-07T14:35:22.781Z,96007.28
2023-01-07T14:38:30.353Z,96004.47
2023-01-07T14:41:17.556Z,95997.28
2023-01-07T14:44:26.681Z,96011.66
2023-01-07T14:47:14.310Z,96010.88
2023-01-07T14:50:28.715Z,96005.22
2023-01-07T14:53:33.683Z,96004.56
2023-01-07T14:56:32.476Z,96003.25
2023-01-07T14:59:24.528Z,96000.44
2023-01-07T15:02:37.545Z,96001.19
2023-01-07T15:05:29.399Z,96002.44
2023-01-07T15:08:38.268Z,96010.69
2023-01-07T15:11:44.328Z,96002.72
2023-01-07T15:14:54.466Z,96000.75
2023-01-07T15:17:41.011Z,96008.47
2023-01-07T15:20:38.004Z,96003.72
2023-01-07T15:23:43.309Z,96008.22
2023-01-07T15:26:36.223Z,96001.59
2023-01-07T15:29:37.536Z,96007.38
2023-01-07T15:32:40.062Z,96020.91
2023-01-07T15:35:37.758Z,96016.13
2023-01-07T15:38:29.650Z,96016.75
2023-01-07T15:41:39.507Z,96013.66
2023-01-07T15:44:38.270Z,96018.56
2023-01-07T15:47:42.349Z,96021.34
2023-01-07T15:50:35.001Z,96022.75
2023-01-07T15:53:23.075Z,96022.56
2023-01-07T15:56:13.944Z,96019.41
2023-01-07T15:58:59.542Z,96014.38
2023-01-07T16:01:48.035Z,96025.41
2023-01-07T16:04:37.124Z,96019.56
2023-01-07T16:07:26.007Z,96023.88
2023-01-07T16:10:30.081Z,96024.22
2023-01-07T16:13:18.781Z,96027.75
2023-01-07T16:16:06.648Z,96018.59
2023-01-07T16:18:59.954Z,96013.81
2023-01-07T16:21:54.951Z,96014.13
2023-01-07T16:24:46.926Z,96004.75
2023-01-07T16:27:33.022Z,96014.44
2023-01-07T16:30:19.030Z,96006.16
2023-01-07T16:33:05.896Z,96011.25
2023-01-07T16:35:55.789Z,96012.94
2023-01-07T16:38:42.155Z,96000.88
2023-01-07T16:41:29.558Z,96011.97
2023-01-07T16:44:46.541Z,96023.84
2023-01-07T16:47:34.213Z,96021.72
2023-01-07T16:50:20.218Z,96019.59
2023-01-07T16:53:22.547Z,96026.59
2023-01-07T16:56:18.320Z,96023.41
2023-01-07T16:59:04.317Z,96023.94
2023-01-07T17:01:50.353Z,96031.47
2023-01-07T17:04:36.422Z,96029.34
2023-01-07T17:07:25.263Z,96026.66
2023-01-07T17:10:27.847Z,96038.50
2023-01-07T17:13:13.453Z,96035.28
2023-01-07T17:16:15.739Z,96029.66
2023-01-07T17:19:24.782Z,96039.03
2023-01-07T17:22:35.062Z,96040.38
2023-01-07T17:25:24.638Z,96041.47
2023-01-07T17:28:19.214Z,96049.00
2023-01-07T17:31:07.076Z,96047.63
2023-01-07T17:33:54.443Z,96051.91
2023-01-07T17:36:40.388Z,96050.84
2023-01-07T17:39:26.146Z,96047.06
2023-01-07T17:42:45.898Z,96052.44
2023-01-07T17:45:32.543Z,96049.72
2023-01-07T17:48:18.523Z,96047.53
2023-01-07T17:51:07.203Z,96048.59
2023-01-07T17:53:55.834Z,96045.91
2023-01-07T17:56:41.695Z,96050.75
2023-01-07T17:59:28.994Z,96053.34
2023-01-07T18:02:17.664Z,96053.31
2023-01-07T18:05:03.894Z,96048.47
2023-01-07T18:07:51.063Z,96059.44
2023-01-07T18:10:55.320Z,96061.88
2023-01-07T18:13:41.889Z,96055.91
2023-01-07T18:16:28.143Z,96059.63
2023-01-07T18:19:15.300Z,96063.34
2023-01-07T18:22:01.162Z,96051.50
2023-01-07T18:24:50.314Z,96062.22
2023-01-07T18:27:36.266Z,96061.13
2023-01-07T18:30:23.290Z,96062.19
2023-01-07T18:33:13.473Z,96058.41
2023-01-07T18:36:00.713Z,96056.50
2023-01-07T18:38:46.712Z,96068.53
2023-01-07T18:41:33.820Z,96060.50
2023-01-07T18:44:21.416Z,96063.66
2023-01-07T18:47:07.814Z,96054.78
2023-01-07T18:49:54.303Z,96057.19
2023-01-07T18:52:41.266Z,96053.06
2023-01-07T18:55:27.627Z,96061.34
2023-01-07T18:58:15.142Z,96053.25
2023-01-07T19:01:05.382Z,96059.66
2023-01-07T19:03:51.776Z,96062.88
2023-01-07T19:06:38.040Z,96063.88
2023-01-07T19:09:23.919Z,96056.38
2023-01-07T19:12:11.410Z,96054.19
2023-01-07T19:14:57.544Z,96057.63
2023-01-07T19:17:43.342Z,96061.06
2023-01-07T19:20:29.060Z,96046.59
2023-01-07T19:23:14.940Z,96051.34
2023-01-07T19:26:02.868Z,96052.41
2023-01-07T19:28:49.017Z,96048.38
2023-01-07T19:31:36.262Z,96056.31
2023-01-07T19:34:22.510Z,96054.91
2023-01-07T19:37:08.358Z,96061.28
2023-01-07T19:39:54.231Z,96057.75
2023-01-07T19:42:39.963Z,96057.47
2023-01-07T19:45:25.735Z,96052.28
2023-01-07T19:48:11.558Z,96050.88
2023-01-07T19:50:59.314Z,96049.75
2023-01-07T19:53:47.891Z,96057.22
2023-01-07T19:56:34.619Z,96056.63
2023-01-07T19:59:20.183Z,96061.41
2023-01-07T20:02:05.981Z,96061.34
2023-01-07T20:04:52.226Z,96068.25
2023-01-07T20:07:37.920Z,96069.28
2023-01-07T20:10:23.679Z,96065.25
2023-01-07T20:13:09.682Z,96066.56
2023-01-07T20:15:55.818Z,96068.13
2023-01-07T20:18:46.489Z,96060.59
2023-01-07T20:21:33.057Z,96061.66
2023-01-07T20:24:19.196Z,96063.22
2023-01-07T20:27:05.437Z,96064.19
2023-01-07T20:29:51.230Z,96068.44
2023-01-07T20:32:37.124Z,96063.56
2023-01-07T20:35:24.558Z,96068.34
2023-01-07T20:38:11.512Z,96065.69
2023-01-07T20:40:57.181Z,96061.38
2023-01-07T20:43:43.580Z,96058.72
2023-01-07T20:46:30.299Z,96062.44
2023-01-07T20:49:16.177Z,96067.78
2023-01-07T20:52:02.111Z,96074.16
2023-01-07T20:54:47.858Z,96070.97
2023-01-07T20:57:34.144Z,96080.56
2023-01-07T21:00:20.291Z,96072.00
2023-01-07T21:03:06.477Z,96067.16
2023-01-07T21:05:56.618Z,96066.59
2023-01-07T21:08:42.413Z,96055.84
2023-01-07T21:11:28.167Z,96066.53
2023-01-07T21:14:14.243Z,96058.44
2023-01-07T21:17:00.115Z,96065.63
2023-01-07T21:19:46.185Z,96068.06
2023-01-07T21:22:32.060Z,96050.91
2023-01-07T21:25:18.185Z,96061.13
2023-01-07T21:28:05.450Z,96055.69
2023-01-07T21:30:53.801Z,96051.66
2023-01-07T21:33:40.266Z,96054.34
2023-01-07T21:36:26.861Z,96051.44
2023-01-07T21:39:13.401Z,96054.91
2023-01-07T21:42:00.003Z,96057.25
2023-01-07T21:44:45.696Z,96058.31
2023-01-07T21:47:31.968Z,96054.81
2023-01-07T21:50:17.785Z,96054.50
2023-01-07T21:53:03.673Z,96056.88
2023-01-07T21:55:49.940Z,96030.81
2023-01-07T21:58:36.651Z,96053.78
2023-01-07T22:01:28.330Z,96040.84
2023-01-07T22:04:14.747Z,96051.53
2023-01-07T22:07:00.986Z,96044.75
2023-01-07T22:09:46.912Z,96047.66
2023-01-07T22:12:33.109Z,96037.63
2023-01-07T22:15:19.831Z,96049.13
2023-01-07T22:18:05.983Z,96048.56
2023-01-07T22:20:55.848Z,96050.06
2023-01-07T22:23:45.831Z,96044.19
2023-01-07T22:26:32.038Z,96044.69
2023-01-07T22:29:18.670Z,96040.88
2023-01-07T22:32:05.081Z,96048.28
2023-01-07T22:34:51.071Z,96041.34
2023-01-07T22:37:37.132Z,96048.28
2023-01-07T22:40:23.081Z,96049.34
2023-01-07T22:43:12.768Z,96036.97
2023-01-07T22:46:04.040Z,96048.47
2023-01-07T22:48:50.468Z,96039.31
2023-01-07T22:51:39.666Z,96039.56
2023-01-07T22:54:25.777Z,96035.78
2023-01-07T22:57:12.329Z,96025.81
2023-01-07T22:59:59.156Z,96027.66
2023-01-07T23:02:45.122Z,96032.94
2023-01-07T23:05:30.962Z,96029.34
2023-01-07T23:08:17.533Z,96036.31
2023-01-07T23:11:04.336Z,96031.22
2023-01-07T23:13:49.970Z,96037.59
2023-01-07T23:16:36.731Z,96027.44
2023-01-07T23:19:22.982Z,96031.13
2023-01-07T23:22:08.847Z,96028.72
2023-01-07T23:24:54.723Z,96024.31
2023-01-07T23:27:40.400Z,96026.75
2023-01-07T23:30:26.288Z,96030.47
2023-01-07T23:33:12.299Z,96026.69
2023-01-07T23:36:08.712Z,96026.44
2023-01-07T23:38:54.819Z,96029.34
2023-01-07T23:41:40.997Z,96024.47
2023-01-07T23:44:27.538Z,96026.56
2023-01-07T23:47:13.227Z,96024.63
2023-01-07T23:49:59.042Z,96021.06
2023-01-07T23:52:45.230Z,96016.19
2023-01-07T23:55:30.842Z,96016.69
2023-01-07T23:58:16.470Z,96012.19
